Погода Урцакина неделю

Республика Дагестан, Россия

12 - 18 июля
  • 12июля
    Сегодня
    +13°
    +25°
    Облачно с прояснениями
    ВремяПогодаТемператураВлажностьДавлениеВетер, м/сВероятность осадков
    00:00Облачно с прояснениями+16°C98 %639 мм2.0 м/с3 %
    03:00Небольшая облачность+15°C95 %638 мм2.3 м/с2 %
    06:00Ясно и безоблачно+17°C92 %639 мм1.4 м/с2 %
    09:00Ясно и безоблачно+23°C62 %641 мм1.6 м/с2 %
    12:00Небольшая облачность+24°C54 %641 мм2.6 м/с8 %
    15:00Облачно с прояснениями+23°C56 %640 мм1.9 м/с23 %
    18:00Облачно с прояснениями+20°C71 %639 мм1.4 м/с15 %
    21:00Небольшая облачность+16°C89 %638 мм2.2 м/с3 %
  • 13июля
    Суббота
    +12°
    +23°
    Облачно с прояснениями, ливень
    ВремяПогодаТемператураВлажностьДавлениеВетер, м/сВероятность осадков
    00:00Ясно и безоблачно+15°C84 %636 мм2.8 м/с5 %
    03:00Ясно и безоблачно+14°C83 %636 мм1.5 м/с7 %
    06:00Ясно и безоблачно+15°C80 %637 мм2.1 м/с2 %
    09:00Практически безоблачно+22°C63 %639 мм1.4 м/с6 %
    12:00Небольшая облачность, ливень+22°C72 %639 мм3.1 м/с40 %
    15:00Облачно с прояснениями, ливень+21°C77 %639 мм2.5 м/с42 %
    18:00Небольшая облачность+19°C82 %638 мм1.4 м/с28 %
    21:00Практически безоблачно+16°C94 %636 мм0.9 м/с6 %
  • 14июля
    Воскресенье
    +11°
    +24°
    Небольшая облачность
    ВремяПогодаТемператураВлажностьДавлениеВетер, м/сВероятность осадков
    00:00Небольшая облачность+14°C93 %636 мм0.7 м/с8 %
    03:00Практически безоблачно+13°C94 %635 мм1.7 м/с6 %
    06:00Ясно и безоблачно+15°C86 %636 мм2.0 м/с4 %
    09:00Небольшая облачность+21°C60 %638 мм1.3 м/с5 %
    12:00Ясно и безоблачно+23°C48 %639 мм2.5 м/с6 %
    15:00Небольшая облачность+23°C56 %638 мм2.6 м/с4 %
    18:00Ясно и безоблачно+19°C73 %638 мм1.1 м/с3 %
    21:00Ясно и безоблачно+14°C90 %637 мм1.2 м/с2 %
  • 15июля
    Понедельник
    +13°
    +24°
    Практически безоблачно
    ВремяПогодаТемператураВлажностьДавлениеВетер, м/сВероятность осадков
    00:00Ясно и безоблачно+13°C85 %636 мм1.4 м/с2 %
    03:00Ясно и безоблачно+12°C78 %636 мм2.5 м/с2 %
    06:00Ясно и безоблачно+14°C76 %637 мм2.3 м/с2 %
    09:00Ясно и безоблачно+22°C46 %639 мм1.4 м/с2 %
    12:00Ясно и безоблачно+24°C44 %640 мм2.5 м/с2 %
    15:00Практически безоблачно+23°C52 %640 мм2.7 м/с2 %
    18:00Ясно и безоблачно+20°C67 %639 мм1.3 м/с2 %
    21:00Ясно и безоблачно+15°C87 %638 мм1.9 м/с2 %
  • 16июля
    Вторник
    +14°
    +25°
    Практически безоблачно
    ВремяПогодаТемператураВлажностьДавлениеВетер, м/сВероятность осадков
    00:00Ясно и безоблачно+15°C83 %638 мм2.6 м/с3 %
    03:00Ясно и безоблачно+14°C81 %637 мм3.0 м/с3 %
    06:00Ясно и безоблачно+15°C76 %638 мм2.6 м/с2 %
    09:00Ясно и безоблачно+23°C49 %641 мм1.6 м/с2 %
    12:00Ясно и безоблачно+25°C50 %641 мм2.8 м/с12 %
    15:00Практически безоблачно+24°C53 %641 мм3.0 м/с35 %
    18:00Практически безоблачно+21°C69 %641 мм1.3 м/с34 %
    21:00Практически безоблачно+15°C89 %639 мм1.8 м/с8 %
Мы используем cookies
Соглашаюсь